Main page
METAR-TAF:

METAR-TAF

Airports :

Isle of Man Airport

Isle of Man,

latitude: 54-05N, longitude: 004-38W, elevation: 17 m

Current weather observation

The report was made 33 minutes ago, at 07:20 UTC
Wind 21 kt from the Southwest
Temperature 14°C
Humidity 82%
Pressure 996 hPa
Visibility 10 km or more
Scattered clouds at a height of 2000 ft

METAR: EGNS 180720Z 23021KT 9999 SCT020 14/11 Q0996 NOSIG

Time: 08:53 (07:53 UTC)

Forecast

The report was made 2 hours and 53 minutes ago, at 05:00 UTC
Forecast valid from 18 at 06 UTC to 18 at 15 UTC
Wind 18 kt from the Southwest
Visibility 10 km or more
Few clouds at a height of 2000 ft

TAF: EGNS 180500Z 1806/1815 22018KT 9999 FEW020

Weather observations and forecasts of more than 4000 airports (METAR and TAF reports).

The available stations are represented by yellow and red dots on the map.

Hover mouse over dot to see the name of the station.

Then click to see weather observations and forecasts.

To change the map : click on the green buttons with a black cross to zoom in, on the green button with a dash to zoom out, or on the green arrows for adjacent maps.


METAR-TAF: